Time;durP1;ratioP1;P1;durP2;ratioP2;P2;SDS_P1;SDS_P2;PMS_P1;PMS_P2;Temp;Humidity;BMP_temperature;BMP_pressure;BME280_temperature;BME280_humidity;BME280_pressure;Samples;Min_cycle;Max_cycle;Signal;HPM_P1;HPM_P2
2023/03/20 00:02:03;;;;;;;;;;;23.20;99.90;;;;;;5028360;28;20028;-61
2023/03/20 00:04:30;;;;;;;18.23;5.65;;;23.00;99.90;;;;;;5026820;28;19912;-60
2023/03/20 00:06:57;;;;;;;21.20;6.50;;;22.70;99.90;;;;;;5028197;28;20095;-61
2023/03/20 00:09:25;;;;;;;17.40;5.80;;;22.40;99.90;;;;;;5028083;28;20041;-62
2023/03/20 00:11:54;;;;;;;22.83;6.63;;;22.30;99.90;;;;;;5027083;28;20039;-61
2023/03/20 00:14:23;;;;;;;18.80;7.22;;;22.20;99.90;;;;;;5031011;28;20029;-62
2023/03/20 00:16:51;;;;;;;15.98;5.63;;;22.10;99.90;;;;;;5026926;28;20119;-62
2023/03/20 00:19:25;;;;;;;20.98;6.38;;;22.10;99.90;;;;;;5029471;28;20108;-61
2023/03/20 00:21:54;;;;;;;21.40;5.72;;;22.10;99.90;;;;;;5029459;28;20026;-62
2023/03/20 00:24:22;;;;;;;13.70;5.35;;;22.20;99.90;;;;;;5030171;28;20028;-61
2023/03/20 00:26:51;;;;;;;17.38;5.05;;;22.10;99.90;;;;;;5030221;28;20107;-64
2023/03/20 00:29:29;;;;;;;17.05;4.72;;;22.00;99.90;;;;;;5038003;28;20062;-62
2023/03/20 00:31:58;;;;;;;22.05;4.72;;;21.80;99.90;;;;;;5030753;28;20022;-62
2023/03/20 00:34:30;;;;;;;15.27;4.32;;;21.60;99.90;;;;;;5032273;28;20029;-61
2023/03/20 00:36:58;;;;;;;16.15;3.15;;;21.40;99.90;;;;;;5031018;28;20029;-61
2023/03/20 00:39:26;;;;;;;9.43;3.08;;;21.30;99.90;;;;;;5029641;28;20440;-62
2023/03/20 00:42:02;;;;;;;5.97;2.33;;;21.20;99.90;;;;;;5028503;28;20161;-62
2023/03/20 00:44:32;;;;;;;8.00;1.85;;;21.20;99.90;;;;;;5034119;28;20025;-62
2023/03/20 00:47:03;;;;;;;11.02;2.45;;;21.10;99.90;;;;;;5029574;28;20025;-62
2023/03/20 00:49:35;;;;;;;6.63;1.77;;;21.30;99.90;;;;;;5032591;28;20041;-62
2023/03/20 00:52:03;;;;;;;11.68;2.53;;;21.40;99.90;;;;;;5030049;28;20029;-62
2023/03/20 00:54:32;;;;;;;7.95;3.10;;;21.50;99.90;;;;;;5028443;28;20025;-61
2023/03/20 00:57:11;;;;;;;7.57;1.67;;;21.60;99.90;;;;;;5027688;28;20049;-61
2023/03/20 00:59:47;;;;;;;5.22;1.40;;;21.80;99.90;;;;;;5029007;28;20116;-61
2023/03/20 01:02:15;;;;;;;7.68;1.50;;;22.10;99.90;;;;;;5031123;28;20029;-62
2023/03/20 01:04:43;;;;;;;6.60;1.60;;;22.20;99.90;;;;;;5033226;28;20569;-61
2023/03/20 01:07:13;;;;;;;6.78;1.48;;;22.30;99.90;;;;;;5033405;28;20072;-61
2023/03/20 01:09:44;;;;;;;6.38;1.65;;;22.50;99.90;;;;;;5028896;28;20037;-63
2023/03/20 01:12:15;;;;;;;5.40;1.30;;;22.50;99.90;;;;;;5031011;28;20045;-61
2023/03/20 01:14:43;;;;;;;10.60;2.20;;;22.50;99.90;;;;;;5030002;28;20022;-62
2023/03/20 01:17:22;;;;;;;3.35;1.20;;;22.60;99.90;;;;;;5030492;28;20117;-63
2023/03/20 01:19:50;;;;;;;4.57;1.15;;;22.50;99.90;;;;;;5024210;28;20029;-64
2023/03/20 01:22:17;;;;;;;6.10;1.30;;;22.30;99.90;;;;;;5030640;28;20027;-61
2023/03/20 01:24:46;;;;;;;5.25;1.88;;;22.30;99.90;;;;;;5031558;28;20022;-62
2023/03/20 01:27:19;;;;;;;4.35;0.98;;;22.30;99.90;;;;;;5028045;28;20029;-62
2023/03/20 01:29:46;;;;;;;6.97;1.33;;;22.40;99.90;;;;;;5034113;28;20037;-62
2023/03/20 01:32:16;;;;;;;7.38;1.30;;;22.30;99.90;;;;;;5038150;28;20029;-62
2023/03/20 01:34:44;;;;;;;6.03;1.30;;;22.30;99.90;;;;;;5038425;28;20025;-62
2023/03/20 01:37:16;;;;;;;6.63;1.75;;;22.40;99.90;;;;;;5030439;28;20474;-62
2023/03/20 01:39:44;;;;;;;7.63;1.42;;;22.40;99.90;;;;;;5037913;28;20021;-62
2023/03/20 01:42:15;;;;;;;5.88;0.90;;;22.40;99.90;;;;;;5035952;28;20215;-62
2023/03/20 01:44:42;;;;;;;6.28;1.55;;;22.40;99.90;;;;;;5028273;28;20506;-62
2023/03/20 01:47:22;;;;;;;6.53;1.48;;;22.20;99.90;;;;;;5029817;28;20136;-62
2023/03/20 01:50:21;;;;;;;6.57;1.30;;;22.20;99.90;;;;;;5030473;28;20132;-61
2023/03/20 01:52:53;;;;;;;11.57;1.92;;;22.10;99.90;;;;;;5020226;28;20033;-61
2023/03/20 01:55:21;;;;;;;10.02;1.75;;;22.00;99.90;;;;;;5035265;28;20027;-61
2023/03/20 01:57:52;;;;;;;6.53;2.05;;;22.00;99.90;;;;;;5030399;28;20068;-61
2023/03/20 02:00:20;;;;;;;10.73;1.83;;;21.90;99.90;;;;;;5041314;28;20071;-63
2023/03/20 02:02:48;;;;;;;15.20;2.10;;;21.90;99.90;;;;;;5037669;28;20025;-62
2023/03/20 02:05:20;;;;;;;9.68;2.53;;;21.90;99.90;;;;;;5028824;28;20045;-61
2023/03/20 02:08:02;;;;;;;5.95;1.90;;;21.90;99.90;;;;;;5029584;28;20068;-61
2023/03/20 02:10:30;;;;;;;7.97;2.08;;;21.90;99.90;;;;;;5023366;28;20152;-61
2023/03/20 02:12:58;;;;;;;6.63;1.08;;;21.80;99.90;;;;;;5034497;28;20104;-62
2023/03/20 02:15:29;;;;;;;9.93;1.65;;;21.60;99.90;;;;;;5042980;28;20031;-61
2023/03/20 02:17:56;;;;;;;9.23;2.00;;;21.50;99.90;;;;;;5033551;28;20056;-61
2023/03/20 02:20:32;;;;;;;11.05;2.15;;;21.50;99.90;;;;;;5025610;28;20040;-61
2023/03/20 02:23:43;;;;;;;8.73;2.35;;;21.60;99.90;;;;;;5036403;28;20033;-60
2023/03/20 02:26:16;;;;;;;11.63;1.70;;;21.60;99.90;;;;;;5028516;28;20055;-63
2023/03/20 02:29:11;;;;;;;4.50;1.40;;;21.70;99.90;;;;;;5043397;28;20086;-62
2023/03/20 02:32:15;;;;;;;7.97;1.88;;;21.80;99.90;;;;;;5030597;28;20120;-63
2023/03/20 02:34:54;;;;;;;10.02;3.20;;;21.80;99.90;;;;;;5022735;28;20104;-62
2023/03/20 02:37:49;;;;;;;15.48;2.75;;;21.80;99.90;;;;;;5032614;28;20542;-62
2023/03/20 02:40:42;;;;;;;8.82;2.15;;;21.70;99.90;;;;;;5043758;28;20029;-63
2023/03/20 02:43:16;;;;;;;9.85;2.33;;;21.70;99.90;;;;;;5030521;28;20076;-64
2023/03/20 02:46:33;;;;;;;11.18;2.22;;;21.60;99.90;;;;;;5029144;28;20037;-64
2023/03/20 02:49:17;;;;;;;14.68;2.40;;;21.60;99.90;;;;;;5015922;28;20056;-65
2023/03/20 02:51:56;;;;;;;14.63;2.60;;;21.60;99.90;;;;;;5030674;28;20108;-64
2023/03/20 02:55:07;;;;;;;12.20;2.20;;;21.60;99.90;;;;;;5029790;28;20033;-63
2023/03/20 02:58:06;;;;;;;13.40;2.17;;;21.70;99.90;;;;;;5026463;28;20029;-64
2023/03/20 03:00:51;;;;;;;11.38;1.80;;;21.80;99.90;;;;;;5024010;28;20037;-63
2023/03/20 03:03:28;;;;;;;12.80;2.25;;;21.80;99.90;;;;;;5029797;28;20109;-63
2023/03/20 03:06:15;;;;;;;15.93;2.38;;;21.90;99.90;;;;;;5027341;28;21095;-65
2023/03/20 03:08:48;;;;;;;8.95;1.88;;;22.00;99.90;;;;;;5023498;28;20116;-65
2023/03/20 03:11:16;;;;;;;13.43;2.38;;;21.90;99.90;;;;;;5027244;28;20025;-64
2023/03/20 03:13:51;;;;;;;6.70;1.95;;;22.00;99.90;;;;;;5044085;28;20082;-66
2023/03/20 03:16:30;;;;;;;14.60;2.63;;;22.00;99.90;;;;;;5026078;28;20071;-65
2023/03/20 03:19:05;;;;;;;14.43;2.50;;;22.10;99.90;;;;;;5030104;28;20071;-65
2023/03/20 03:21:35;;;;;;;10.40;1.83;;;22.00;99.90;;;;;;5033786;28;20546;-64
2023/03/20 03:24:03;;;;;;;13.10;1.95;;;22.10;99.90;;;;;;5031995;28;20056;-65
2023/03/20 03:26:35;;;;;;;15.90;4.10;;;22.00;99.90;;;;;;5035593;28;20028;-64
2023/03/20 03:29:11;;;;;;;10.75;1.90;;;22.00;99.90;;;;;;5029655;28;20519;-65
2023/03/20 03:31:39;;;;;;;13.02;3.05;;;22.00;99.90;;;;;;5038668;28;20053;-61
2023/03/20 03:34:12;;;;;;;10.07;2.40;;;21.80;99.90;;;;;;5031717;28;20072;-63
2023/03/20 03:36:59;;;;;;;10.82;2.15;;;21.70;99.90;;;;;;5031538;28;20021;-60
2023/03/20 03:39:42;;;;;;;12.45;2.25;;;21.80;99.90;;;;;;5032339;28;20063;-60
2023/03/20 03:42:32;;;;;;;8.23;1.67;;;21.70;99.90;;;;;;5030483;28;20017;-61
2023/03/20 03:45:12;;;;;;;8.90;1.80;;;21.70;99.90;;;;;;5028373;28;20124;-61
2023/03/20 03:47:50;;;;;;;6.75;1.55;;;21.60;99.90;;;;;;5033133;28;20124;-60
2023/03/20 03:50:47;;;;;;;11.43;1.85;;;21.50;99.90;;;;;;5028570;28;20045;-60
2023/03/20 03:53:19;;;;;;;13.90;2.15;;;21.60;99.90;;;;;;5009663;28;20049;-61
2023/03/20 03:55:57;;;;;;;17.20;2.42;;;21.50;99.90;;;;;;5026335;28;20036;-61
2023/03/20 03:58:32;;;;;;;6.72;1.30;;;21.50;99.90;;;;;;5019519;28;20545;-61
2023/03/20 04:01:01;;;;;;;7.75;1.88;;;21.50;99.90;;;;;;5017104;28;20028;-61
2023/03/20 04:03:35;;;;;;;12.63;2.58;;;21.40;99.90;;;;;;5033598;28;20082;-61
2023/03/20 04:06:05;;;;;;;4.45;1.17;;;21.50;99.90;;;;;;5030346;28;20394;-61
2023/03/20 04:08:34;;;;;;;9.43;1.98;;;21.50;99.90;;;;;;5022331;28;20132;-61
2023/03/20 04:11:02;;;;;;;8.63;1.20;;;21.60;99.90;;;;;;5015575;28;20049;-61
2023/03/20 04:13:30;;;;;;;9.38;3.05;;;21.80;99.90;;;;;;5028867;28;20036;-61
2023/03/20 04:15:57;;;;;;;11.20;1.50;;;21.80;99.90;;;;;;5031540;28;20017;-60
2023/03/20 04:18:24;;;;;;;10.60;2.65;;;21.70;99.90;;;;;;5019632;28;20037;-60
2023/03/20 04:20:52;;;;;;;9.13;2.40;;;21.80;99.90;;;;;;5028567;28;20036;-61
2023/03/20 04:23:19;;;;;;;12.02;2.33;;;22.00;99.90;;;;;;5022126;28;20505;-62
2023/03/20 04:25:47;;;;;;;11.00;2.10;;;22.00;99.90;;;;;;5024871;28;20077;-61
2023/03/20 04:28:15;;;;;;;13.52;2.28;;;21.90;99.90;;;;;;5026337;28;20025;-61
2023/03/20 04:30:46;;;;;;;13.30;2.08;;;21.80;99.90;;;;;;5025982;28;20037;-61
2023/03/20 04:33:15;;;;;;;17.50;2.22;;;21.80;99.90;;;;;;5028036;28;20014;-61
2023/03/20 04:35:42;;;;;;;12.65;2.58;;;21.70;99.90;;;;;;5027826;28;20033;-59
2023/03/20 04:38:10;;;;;;;8.38;1.38;;;21.60;99.90;;;;;;5026364;28;20041;-60
2023/03/20 04:40:38;;;;;;;10.63;1.80;;;21.60;99.90;;;;;;5026509;28;20092;-61
2023/03/20 04:43:05;;;;;;;13.18;2.15;;;21.50;99.90;;;;;;5031043;28;20036;-63
2023/03/20 04:45:33;;;;;;;6.72;1.27;;;21.50;99.90;;;;;;5029161;28;20018;-62
2023/03/20 04:48:00;;;;;;;6.72;1.50;;;21.40;99.90;;;;;;5030656;28;20025;-60
2023/03/20 04:50:28;;;;;;;12.10;2.08;;;21.20;99.90;;;;;;5036601;28;20041;-63
2023/03/20 04:52:55;;;;;;;12.15;2.35;;;21.10;99.90;;;;;;5040384;28;20032;-62
2023/03/20 04:55:23;;;;;;;14.40;2.80;;;20.90;99.90;;;;;;5043417;28;20021;-61
2023/03/20 04:57:51;;;;;;;15.07;2.15;;;20.80;99.90;;;;;;5033440;28;20391;-61
2023/03/20 05:00:18;;;;;;;8.68;2.58;;;20.70;99.90;;;;;;5035698;28;20039;-62
2023/03/20 05:02:46;;;;;;;7.05;1.42;;;20.80;99.90;;;;;;5041177;28;20056;-61
2023/03/20 05:05:13;;;;;;;13.30;2.10;;;20.90;99.90;;;;;;5026882;28;20029;-60
2023/03/20 05:07:41;;;;;;;14.02;3.35;;;21.00;99.90;;;;;;5032929;28;20069;-61
2023/03/20 05:10:09;;;;;;;8.43;1.95;;;21.00;99.90;;;;;;5041621;28;20525;-61
2023/03/20 05:12:36;;;;;;;10.98;2.60;;;21.10;99.90;;;;;;5025665;28;20030;-60
2023/03/20 05:15:04;;;;;;;7.78;1.50;;;21.20;99.90;;;;;;5029467;28;20021;-61
2023/03/20 05:17:32;;;;;;;10.77;1.98;;;21.10;99.90;;;;;;5029639;28;20033;-61
2023/03/20 05:19:59;;;;;;;11.02;2.78;;;21.10;99.90;;;;;;5026916;28;20025;-62
2023/03/20 05:22:26;;;;;;;12.27;2.15;;;21.00;99.90;;;;;;5034881;28;20049;-61
2023/03/20 05:24:54;;;;;;;12.10;1.88;;;20.90;99.90;;;;;;5027892;28;20386;-61
2023/03/20 05:27:21;;;;;;;12.60;1.52;;;20.90;99.90;;;;;;5025101;28;20026;-61
2023/03/20 05:29:49;;;;;;;13.43;2.25;;;20.80;99.90;;;;;;5031832;28;20391;-61
2023/03/20 05:32:16;;;;;;;14.00;2.55;;;20.70;99.90;;;;;;5037918;28;20257;-61
2023/03/20 05:34:44;;;;;;;7.93;1.73;;;20.80;99.90;;;;;;5027625;28;20430;-61
2023/03/20 05:37:11;;;;;;;15.73;2.65;;;20.80;99.90;;;;;;5037026;28;20018;-61
2023/03/20 05:39:39;;;;;;;9.48;3.50;;;20.80;99.90;;;;;;5028245;28;20042;-61
2023/03/20 05:42:06;;;;;;;8.25;2.58;;;20.80;99.90;;;;;;5028113;28;20080;-62
2023/03/20 05:44:34;;;;;;;7.28;1.70;;;20.80;99.90;;;;;;5036234;28;20025;-61
2023/03/20 05:47:01;;;;;;;9.00;1.55;;;20.70;99.90;;;;;;5046023;28;20021;-61
2023/03/20 05:49:28;;;;;;;16.13;2.20;;;20.80;99.90;;;;;;5036585;28;20030;-59
2023/03/20 05:51:56;;;;;;;11.63;1.45;;;20.80;99.90;;;;;;5034494;28;20024;-61
2023/03/20 05:54:23;;;;;;;7.78;1.83;;;20.70;99.90;;;;;;5024476;28;20033;-61
2023/03/20 05:56:51;;;;;;;9.15;1.63;;;20.70;99.90;;;;;;5037577;28;20021;-62
2023/03/20 05:59:18;;;;;;;12.13;2.00;;;20.70;99.90;;;;;;5037638;28;20036;-61
2023/03/20 06:01:46;;;;;;;9.30;2.22;;;20.70;99.90;;;;;;5027864;28;20038;-61
2023/03/20 06:04:13;;;;;;;13.40;1.90;;;20.70;99.90;;;;;;5036441;28;20074;-61
2023/03/20 06:06:41;;;;;;;8.93;2.38;;;20.80;99.90;;;;;;5047119;28;20497;-60
2023/03/20 06:09:08;;;;;;;15.07;2.38;;;20.90;99.90;;;;;;5034051;28;20040;-61
2023/03/20 06:11:35;;;;;;;10.40;1.90;;;20.90;99.90;;;;;;5033495;28;20025;-62
2023/03/20 06:14:03;;;;;;;11.15;2.03;;;21.00;99.90;;;;;;5031373;28;20064;-63
2023/03/20 06:16:30;;;;;;;7.32;1.27;;;21.10;99.90;;;;;;5029163;28;20021;-62
2023/03/20 06:18:58;;;;;;;7.90;1.58;;;21.00;99.90;;;;;;5034164;28;20104;-61
2023/03/20 06:21:25;;;;;;;14.98;2.22;;;21.10;99.90;;;;;;5034410;28;21015;-62
2023/03/20 06:23:53;;;;;;;9.52;2.35;;;21.10;99.90;;;;;;5030675;28;20037;-62
2023/03/20 06:26:21;;;;;;;10.93;2.38;;;21.10;99.90;;;;;;5028080;28;20052;-62
2023/03/20 06:28:48;;;;;;;10.20;1.83;;;21.00;99.90;;;;;;5027294;28;20041;-62
2023/03/20 06:31:16;;;;;;;13.55;1.60;;;21.00;99.90;;;;;;5034351;28;20444;-61
2023/03/20 06:33:44;;;;;;;10.55;2.33;;;21.00;99.90;;;;;;5041044;28;20086;-60
2023/03/20 06:36:11;;;;;;;9.60;1.38;;;21.00;99.90;;;;;;5035581;28;20079;-62
2023/03/20 06:38:39;;;;;;;10.90;2.03;;;21.00;99.90;;;;;;5035237;28;20057;-62
2023/03/20 06:41:07;;;;;;;13.20;2.47;;;21.10;99.90;;;;;;5041978;28;20029;-60
2023/03/20 06:43:36;;;;;;;15.18;3.28;;;21.10;99.90;;;;;;5027774;28;20390;-63
2023/03/20 06:46:03;;;;;;;15.57;2.28;;;21.10;99.90;;;;;;5024065;28;20029;-62
2023/03/20 06:48:31;;;;;;;13.02;4.03;;;20.90;99.90;;;;;;5030901;28;20040;-62
2023/03/20 06:50:58;;;;;;;12.43;1.65;;;20.70;99.90;;;;;;5027055;28;20034;-62
2023/03/20 06:53:26;;;;;;;13.50;2.00;;;20.50;99.90;;;;;;5031086;28;20027;-62
2023/03/20 06:55:53;;;;;;;8.70;1.90;;;20.30;99.90;;;;;;5031264;28;20033;-63
2023/03/20 06:58:21;;;;;;;10.75;1.80;;;20.00;99.90;;;;;;5034342;28;20418;-64
2023/03/20 07:00:48;;;;;;;14.20;1.90;;;19.80;99.90;;;;;;5030878;28;20417;-62
2023/03/20 07:03:16;;;;;;;13.27;2.38;;;19.80;99.90;;;;;;5028392;28;20693;-62
2023/03/20 07:05:43;;;;;;;13.70;2.40;;;19.70;99.90;;;;;;5021703;28;20044;-62
2023/03/20 07:08:11;;;;;;;12.35;1.92;;;19.60;99.90;;;;;;5030311;28;20386;-63
2023/03/20 07:10:38;;;;;;;13.35;2.85;;;19.50;99.90;;;;;;5025168;28;20119;-60
2023/03/20 07:13:06;;;;;;;13.80;2.53;;;19.50;99.90;;;;;;5028723;28;20021;-63
2023/03/20 07:15:33;;;;;;;13.25;2.25;;;19.50;99.90;;;;;;5028246;28;20065;-63
2023/03/20 07:18:00;;;;;;;15.63;3.60;;;19.60;99.90;;;;;;5022256;28;20021;-62
2023/03/20 07:20:28;;;;;;;13.57;3.10;;;19.60;99.90;;;;;;5033474;28;20057;-61
2023/03/20 07:22:55;;;;;;;11.93;2.03;;;19.60;99.90;;;;;;5027653;28;20021;-61
2023/03/20 07:25:23;;;;;;;9.30;1.17;;;19.50;99.90;;;;;;5028663;28;20031;-61
2023/03/20 07:27:50;;;;;;;12.93;1.83;;;19.50;99.90;;;;;;5037322;28;20029;-62
2023/03/20 07:30:18;;;;;;;9.13;1.58;;;19.50;99.90;;;;;;5029569;28;20040;-62
2023/03/20 07:32:47;;;;;;;15.30;2.78;;;19.50;99.90;;;;;;5025541;28;20039;-62
2023/03/20 07:35:15;;;;;;;13.85;2.67;;;19.50;99.90;;;;;;5026048;28;20057;-62
2023/03/20 07:37:43;;;;;;;11.38;1.50;;;19.70;99.90;;;;;;5026250;28;20504;-61
2023/03/20 07:40:11;;;;;;;11.85;2.13;;;19.70;99.90;;;;;;5029630;28;20033;-61
2023/03/20 07:42:38;;;;;;;14.82;1.98;;;19.70;99.90;;;;;;5021478;28;20030;-60
2023/03/20 07:45:06;;;;;;;13.68;2.40;;;19.70;99.90;;;;;;5024853;28;20201;-62
2023/03/20 07:47:34;;;;;;;10.45;2.40;;;19.70;99.90;;;;;;5024354;28;20041;-62
2023/03/20 07:50:01;;;;;;;14.30;1.95;;;19.70;99.90;;;;;;5016799;28;20402;-61
2023/03/20 07:52:29;;;;;;;19.98;2.75;;;19.70;99.90;;;;;;5020555;28;20481;-62
2023/03/20 07:54:56;;;;;;;11.07;1.92;;;19.80;99.90;;;;;;5022014;28;20041;-62
2023/03/20 07:57:24;;;;;;;13.38;1.98;;;19.80;99.90;;;;;;5025890;28;20025;-62
2023/03/20 07:59:51;;;;;;;10.77;1.90;;;19.80;99.90;;;;;;5015057;28;20057;-63
2023/03/20 08:02:19;;;;;;;10.45;2.97;;;19.80;99.90;;;;;;5032342;28;20029;-64
2023/03/20 08:04:46;;;;;;;13.65;2.00;;;19.80;99.90;;;;;;5023967;28;20037;-62
2023/03/20 08:07:14;;;;;;;11.82;1.90;;;19.80;99.90;;;;;;5022118;28;20412;-61
2023/03/20 08:09:41;;;;;;;24.73;2.90;;;19.70;99.90;;;;;;5022868;28;20103;-61
2023/03/20 08:12:09;;;;;;;11.93;1.73;;;19.70;99.90;;;;;;5024732;28;20132;-60
2023/03/20 08:14:37;;;;;;;16.42;2.47;;;19.70;99.90;;;;;;5023007;28;20033;-62
2023/03/20 08:17:05;;;;;;;13.63;1.90;;;19.60;99.90;;;;;;5015556;28;20018;-60
2023/03/20 08:19:32;;;;;;;17.35;2.75;;;19.60;99.90;;;;;;5020136;28;20414;-60
2023/03/20 08:22:00;;;;;;;13.55;2.17;;;19.50;99.90;;;;;;5015835;28;20018;-60
2023/03/20 08:24:27;;;;;;;13.75;2.20;;;19.50;99.90;;;;;;5021946;28;20036;-60
2023/03/20 08:26:55;;;;;;;12.68;3.83;;;19.60;99.90;;;;;;5019156;28;20484;-61
2023/03/20 08:29:22;;;;;;;10.70;2.85;;;19.60;99.90;;;;;;5033816;28;20065;-65
2023/03/20 08:31:49;;;;;;;8.80;2.35;;;19.50;99.90;;;;;;5024824;28;20028;-61
2023/03/20 08:34:17;;;;;;;16.88;2.92;;;19.50;99.90;;;;;;5021226;28;20030;-60
2023/03/20 08:36:44;;;;;;;12.05;2.40;;;19.60;99.90;;;;;;5022583;28;20036;-61
2023/03/20 08:39:12;;;;;;;13.10;2.85;;;19.60;99.90;;;;;;5020938;28;20064;-63
2023/03/20 08:41:42;;;;;;;10.57;2.72;;;19.60;99.90;;;;;;5022663;28;20029;-63
2023/03/20 08:44:10;;;;;;;13.52;3.63;;;19.50;99.90;;;;;;5022945;28;20061;-64
2023/03/20 08:46:38;;;;;;;19.90;3.35;;;19.50;99.90;;;;;;5021657;28;20036;-63
2023/03/20 08:49:06;;;;;;;11.93;3.50;;;19.50;99.90;;;;;;5033890;28;20039;-63
2023/03/20 08:51:34;;;;;;;14.80;2.40;;;19.50;99.90;;;;;;5022686;28;20029;-61
2023/03/20 08:54:01;;;;;;;9.85;2.30;;;19.50;99.90;;;;;;5026954;28;20367;-62
2023/03/20 08:56:28;;;;;;;15.93;2.45;;;19.50;99.90;;;;;;5025991;28;20032;-62
2023/03/20 08:58:56;;;;;;;13.63;2.80;;;19.50;99.90;;;;;;5027515;28;20028;-62
2023/03/20 09:01:23;;;;;;;13.95;2.30;;;19.50;99.90;;;;;;5025316;28;20053;-62
2023/03/20 09:03:51;;;;;;;9.85;2.63;;;19.40;99.90;;;;;;5023047;28;20087;-62
2023/03/20 09:06:18;;;;;;;14.32;2.42;;;19.40;99.90;;;;;;5024652;28;20140;-68
2023/03/20 09:08:46;;;;;;;21.30;3.22;;;19.40;99.90;;;;;;5023802;28;20068;-65
2023/03/20 09:11:14;;;;;;;15.07;2.78;;;19.50;99.90;;;;;;5024618;28;20088;-67
2023/03/20 09:13:41;;;;;;;15.30;2.22;;;19.50;99.90;;;;;;5020744;28;20025;-61
2023/03/20 09:16:09;;;;;;;14.95;2.47;;;19.40;99.90;;;;;;5034412;28;20621;-61
2023/03/20 09:18:36;;;;;;;16.30;3.00;;;19.50;99.90;;;;;;5041790;28;20095;-62
2023/03/20 09:21:04;;;;;;;11.88;1.83;;;19.50;99.90;;;;;;5029263;28;20108;-62
2023/03/20 09:23:31;;;;;;;19.55;3.00;;;19.50;99.90;;;;;;5025795;28;20084;-62
2023/03/20 09:25:59;;;;;;;23.05;2.42;;;19.50;99.90;;;;;;5020547;28;20032;-59
2023/03/20 09:28:26;;;;;;;17.85;3.08;;;19.40;99.90;;;;;;5023016;28;20108;-59
2023/03/20 09:30:58;;;;;;;11.55;2.28;;;19.40;99.90;;;;;;5022096;28;20441;-60
2023/03/20 09:33:27;;;;;;;13.38;2.58;;;19.50;99.90;;;;;;5022208;28;20033;-60
2023/03/20 09:35:54;;;;;;;14.85;2.40;;;19.50;99.90;;;;;;5020934;28;20049;-59
2023/03/20 09:38:23;;;;;;;11.02;2.95;;;19.50;99.90;;;;;;5024163;28;20032;-60
2023/03/20 09:41:02;;;;;;;13.15;2.85;;;19.50;99.90;;;;;;5020267;28;20029;-60
2023/03/20 09:43:47;;;;;;;18.90;2.63;;;19.50;99.90;;;;;;5028413;28;20034;-61
2023/03/20 09:46:48;;;;;;;13.68;2.58;;;19.50;99.90;;;;;;5031748;28;20033;-59
2023/03/20 09:49:45;;;;;;;14.68;2.33;;;19.50;99.90;;;;;;5028364;28;20502;-59
2023/03/20 09:52:32;;;;;;;17.88;2.58;;;19.50;99.90;;;;;;5025627;28;20056;-58
2023/03/20 09:55:24;;;;;;;13.77;2.28;;;19.50;99.90;;;;;;5025765;28;20029;-60
2023/03/20 09:57:56;;;;;;;12.07;2.05;;;19.50;99.90;;;;;;5021667;28;20063;-60
2023/03/20 10:00:31;;;;;;;12.50;2.40;;;19.50;99.90;;;;;;5023484;28;20014;-60
2023/03/20 10:03:03;;;;;;;19.45;3.00;;;19.50;99.90;;;;;;5027601;28;20108;-61
2023/03/20 10:05:44;;;;;;;15.15;2.50;;;19.50;99.90;;;;;;5022862;28;20025;-60
2023/03/20 10:08:17;;;;;;;18.80;5.20;;;19.50;99.90;;;;;;5028110;28;20128;-60
2023/03/20 10:11:15;;;;;;;10.27;2.92;;;19.40;99.90;;;;;;5028362;28;20068;-59
2023/03/20 10:14:20;;;;;;;12.43;2.45;;;19.30;99.90;;;;;;5024819;28;20407;-60
2023/03/20 10:16:53;;;;;;;;;;;19.30;99.90;;;;;;5022343;28;20022;-58
2023/03/20 10:19:43;;;;;;;19.42;2.72;;;19.30;99.90;;;;;;5026685;28;19908;-59
2023/03/20 10:22:28;;;;;;;8.57;2.75;;;19.30;99.90;;;;;;5025170;28;20486;-60
2023/03/20 10:25:10;;;;;;;12.57;2.20;;;19.30;99.90;;;;;;5028729;28;20170;-60
2023/03/20 10:27:43;;;;;;;11.43;2.40;;;19.40;99.90;;;;;;5022557;28;20126;-58
2023/03/20 10:30:32;;;;;;;12.15;2.35;;;19.40;99.90;;;;;;5026520;28;20099;-59
2023/03/20 10:33:23;;;;;;;13.05;2.60;;;19.40;99.90;;;;;;5023669;28;20034;-59
2023/03/20 10:35:57;;;;;;;10.40;2.10;;;19.50;99.90;;;;;;5030799;28;20021;-59
2023/03/20 10:38:42;;;;;;;14.73;2.35;;;19.40;99.90;;;;;;5027641;28;20040;-59
2023/03/20 10:41:18;;;;;;;13.55;3.85;;;19.20;99.90;;;;;;5023554;28;20197;-60
2023/03/20 10:43:48;;;;;;;15.82;3.13;;;19.10;99.90;;;;;;5026587;28;20486;-58
2023/03/20 10:46:32;;;;;;;21.15;2.95;;;19.00;99.90;;;;;;5022758;28;20033;-59
2023/03/20 10:49:10;;;;;;;13.25;2.38;;;18.90;99.90;;;;;;5021421;28;20042;-60
2023/03/20 10:51:51;;;;;;;16.48;2.65;;;18.90;99.90;;;;;;5024353;28;20030;-59
2023/03/20 10:54:25;;;;;;;14.80;2.17;;;18.80;99.90;;;;;;5019825;28;20052;-61
2023/03/20 10:56:56;;;;;;;15.18;2.03;;;18.80;99.90;;;;;;5031601;28;20021;-59
2023/03/20 10:59:33;;;;;;;17.52;3.28;;;18.80;99.90;;;;;;5034368;28;20025;-59
2023/03/20 11:02:00;;;;;;;16.90;3.45;;;18.70;99.90;;;;;;5031387;28;20465;-59
2023/03/20 11:04:28;;;;;;;17.88;2.40;;;18.70;99.90;;;;;;5025010;28;20025;-59
2023/03/20 11:07:31;;;;;;;18.73;2.60;;;18.60;99.90;;;;;;5024836;28;20041;-58
2023/03/20 11:10:12;;;;;;;16.33;2.80;;;18.50;99.90;;;;;;5029829;28;20478;-59
2023/03/20 11:12:44;;;;;;;14.35;2.08;;;18.50;99.90;;;;;;5018451;28;20026;-58
2023/03/20 11:15:19;;;;;;;14.48;2.10;;;18.40;99.90;;;;;;5021239;28;20029;-59
2023/03/20 11:18:01;;;;;;;13.95;1.88;;;18.30;99.90;;;;;;5023574;28;20033;-59
2023/03/20 11:20:51;;;;;;;21.38;2.10;;;18.30;99.90;;;;;;5024967;28;20421;-59
2023/03/20 11:23:32;;;;;;;18.65;2.75;;;18.30;99.90;;;;;;5029181;28;20034;-58
2023/03/20 11:26:06;;;;;;;19.00;2.78;;;18.30;99.90;;;;;;5019140;28;20041;-58
2023/03/20 11:28:39;;;;;;;13.95;2.85;;;18.30;99.90;;;;;;5024679;28;20022;-58
2023/03/20 11:31:11;;;;;;;16.13;3.70;;;18.30;99.90;;;;;;5020108;28;20116;-60
2023/03/20 11:33:42;;;;;;;16.55;2.53;;;18.20;99.90;;;;;;5024038;28;20052;-60
2023/03/20 11:36:20;;;;;;;12.55;2.30;;;18.20;99.90;;;;;;5033370;28;20559;-60
2023/03/20 11:38:49;;;;;;;19.45;3.65;;;18.10;99.90;;;;;;5029532;28;20033;-60
2023/03/20 11:41:25;;;;;;;17.67;2.10;;;18.10;99.90;;;;;;5027600;28;20032;-59
2023/03/20 11:43:53;;;;;;;16.40;2.30;;;18.10;99.90;;;;;;5032475;28;20025;-60
2023/03/20 11:46:23;;;;;;;22.05;3.80;;;18.00;99.90;;;;;;5032372;28;20622;-59
2023/03/20 11:49:19;;;;;;;15.90;2.00;;;18.00;99.90;;;;;;5029850;28;20032;-59
2023/03/20 11:51:47;;;;;;;12.68;1.90;;;18.00;99.90;;;;;;5023010;28;20120;-59
2023/03/20 11:54:25;;;;;;;13.70;2.28;;;18.00;99.90;;;;;;5022824;28;20053;-59
2023/03/20 11:56:58;;;;;;;21.10;2.97;;;17.90;99.90;;;;;;5032448;28;20052;-60
2023/03/20 11:59:36;;;;;;;15.65;2.42;;;17.90;99.90;;;;;;5032794;28;20028;-60
2023/03/20 12:02:18;;;;;;;12.65;2.20;;;17.90;99.90;;;;;;5021982;28;20490;-61
2023/03/20 12:04:46;;;;;;;13.35;2.63;;;17.90;99.90;;;;;;5025359;28;20032;-59
2023/03/20 12:07:16;;;;;;;13.63;2.30;;;17.90;99.90;;;;;;5027751;28;20050;-59
2023/03/20 12:09:51;;;;;;;15.25;2.45;;;17.80;99.90;;;;;;5027310;28;20037;-59
2023/03/20 12:12:39;;;;;;;18.20;2.42;;;17.90;99.90;;;;;;5028199;28;20025;-62
2023/03/20 12:15:13;;;;;;;13.93;2.92;;;17.80;99.90;;;;;;5037351;28;20029;-61
2023/03/20 12:17:46;;;;;;;13.55;2.72;;;17.80;99.90;;;;;;5028808;28;20033;-60
2023/03/20 12:20:29;;;;;;;15.10;3.75;;;17.70;99.90;;;;;;5026452;28;20543;-58
2023/03/20 12:23:09;;;;;;;22.10;4.85;;;17.70;99.90;;;;;;5018624;28;20025;-58
2023/03/20 12:25:37;;;;;;;14.38;2.15;;;17.70;99.90;;;;;;5023855;28;20035;-57
2023/03/20 12:28:14;;;;;;;25.70;2.42;;;17.70;99.90;;;;;;5022387;28;20105;-58
2023/03/20 12:31:00;;;;;;;14.90;2.97;;;17.70;99.90;;;;;;5032299;28;20508;-59
2023/03/20 12:33:54;;;;;;;13.75;2.45;;;17.60;99.90;;;;;;5018517;28;20033;-58
2023/03/20 12:36:33;;;;;;;16.27;2.70;;;17.70;99.90;;;;;;4985241;28;20065;-59
2023/03/20 12:39:05;;;;;;;10.45;2.40;;;17.60;99.90;;;;;;5029664;28;20041;-60
2023/03/20 12:41:58;;;;;;;18.05;2.90;;;17.70;99.90;;;;;;5018279;28;20429;-58
2023/03/20 12:44:33;;;;;;;16.30;3.47;;;17.70;99.90;;;;;;5015901;28;20032;-59
2023/03/20 12:47:23;;;;;;;;;;;17.70;99.90;;;;;;5028678;28;20555;-61
2023/03/20 12:50:03;;;;;;;23.10;2.83;;;17.70;99.90;;;;;;5014653;28;20012;-60
2023/03/20 12:53:09;;;;;;;12.73;2.88;;;17.70;99.90;;;;;;5010369;28;20028;-59
2023/03/20 12:56:00;;;;;;;20.20;3.20;;;17.70;99.90;;;;;;4964466;28;20142;-58
2023/03/20 12:58:54;;;;;;;20.52;2.88;;;17.80;99.90;;;;;;5013214;28;20060;-59
2023/03/20 13:01:53;;;;;;;18.73;3.13;;;17.80;99.90;;;;;;5036883;28;20088;-58
2023/03/20 13:04:39;;;;;;;16.58;2.65;;;17.80;99.90;;;;;;4992398;28;20030;-59
2023/03/20 13:07:19;;;;;;;19.02;3.17;;;17.80;99.90;;;;;;5011354;28;20061;-59
2023/03/20 13:09:56;;;;;;;22.80;5.65;;;17.90;99.90;;;;;;5023857;28;20072;-57
2023/03/20 13:12:30;;;;;;;17.70;4.32;;;17.90;99.90;;;;;;5022096;28;20022;-58